createdAt,value
2019-06-15T00:01:01.895Z,94722.30
2019-06-15T00:06:03.244Z,94732.23
2019-06-15T00:11:04.633Z,94727.16
2019-06-15T00:16:06.035Z,94730.49
2019-06-15T00:21:08.069Z,94725.12
2019-06-15T00:26:09.461Z,94737.90
2019-06-15T00:31:10.867Z,94738.71
2019-06-15T00:36:12.233Z,94730.57
2019-06-15T00:41:13.611Z,94747.95
2019-06-15T00:46:15.022Z,94734.34
2019-06-15T00:51:16.392Z,94723.70
2019-06-15T00:56:17.782Z,94712.31
2019-06-15T01:01:19.150Z,94683.95
2019-06-15T01:06:20.523Z,94675.00
2019-06-15T01:11:21.814Z,94669.12
2019-06-15T01:16:23.227Z,94660.65
2019-06-15T01:21:25.328Z,94686.57
2019-06-15T01:26:26.771Z,94682.93
2019-06-15T01:31:28.880Z,94672.36
2019-06-15T01:36:30.238Z,94659.63
2019-06-15T01:41:31.599Z,94662.88
2019-06-15T01:46:33.008Z,94670.17
2019-06-15T01:51:34.458Z,94659.40
2019-06-15T01:56:35.809Z,94682.43
2019-06-15T02:01:37.181Z,94665.16
2019-06-15T02:06:38.542Z,94643.78
2019-06-15T02:11:39.918Z,94620.89
2019-06-15T02:16:41.298Z,94610.22
2019-06-15T02:21:42.607Z,94613.63
2019-06-15T02:26:43.961Z,94622.91
2019-06-15T02:31:45.286Z,94623.67
2019-06-15T02:36:46.714Z,94625.05
2019-06-15T02:41:48.085Z,94620.23
2019-06-15T02:46:49.447Z,94628.04
2019-06-15T02:51:50.887Z,94633.09
2019-06-15T02:56:52.321Z,94639.29
2019-06-15T03:01:53.696Z,94637.61
2019-06-15T03:06:55.064Z,94637.51
2019-06-15T03:11:56.411Z,94646.16
2019-06-15T03:16:57.904Z,94647.25
2019-06-15T03:21:59.194Z,94644.74
2019-06-15T03:27:00.601Z,94640.16
2019-06-15T03:32:02.034Z,94647.41
2019-06-15T03:37:03.325Z,94664.39
2019-06-15T03:42:04.660Z,94659.95
2019-06-15T03:47:06.044Z,94656.15
2019-06-15T03:52:07.379Z,94645.98
2019-06-15T03:57:08.730Z,94646.45
2019-06-15T04:02:10.063Z,94642.48
2019-06-15T04:07:11.406Z,94649.73
2019-06-15T04:12:12.710Z,94651.31
2019-06-15T04:17:14.171Z,94650.33
2019-06-15T04:22:15.524Z,94655.75
2019-06-15T04:27:16.864Z,94662.69
2019-06-15T04:32:18.173Z,94669.77
2019-06-15T04:37:19.588Z,94672.09
2019-06-15T04:42:20.888Z,94671.30
2019-06-15T04:47:22.228Z,94676.35
2019-06-15T04:52:23.573Z,94676.20
2019-06-15T04:57:24.933Z,94686.03
2019-06-15T05:02:27.362Z,94678.77
2019-06-15T05:07:27.664Z,94688.69
2019-06-15T05:12:29.021Z,94756.63
2019-06-15T05:17:30.369Z,94760.98
2019-06-15T05:22:31.828Z,94772.02
2019-06-15T05:27:33.212Z,94781.73
2019-06-15T05:32:34.625Z,94802.03
2019-06-15T05:37:36.059Z,94821.91
2019-06-15T05:42:37.420Z,94831.47
2019-06-15T05:47:38.772Z,94843.86
2019-06-15T05:52:40.909Z,94863.91
2019-06-15T05:57:42.262Z,94870.95
2019-06-15T06:02:43.672Z,94875.55
2019-06-15T06:07:45.782Z,94885.20
2019-06-15T06:12:47.152Z,94896.31
2019-06-15T06:17:48.519Z,94904.36
2019-06-15T06:22:49.989Z,94914.45
2019-06-15T06:27:51.367Z,94923.55
2019-06-15T06:32:52.788Z,94951.86
2019-06-15T06:37:54.889Z,94939.38
2019-06-15T06:42:56.325Z,94947.95
2019-06-15T06:47:57.677Z,94980.00
2019-06-15T06:52:59.020Z,94967.13
2019-06-15T06:58:00.383Z,94969.95
2019-06-15T07:03:05.644Z,94962.86
2019-06-15T07:08:07.033Z,94986.28
2019-06-15T07:13:08.381Z,94989.67
2019-06-15T07:18:09.720Z,95002.13
2019-06-15T07:23:11.096Z,94996.89
2019-06-15T07:28:12.494Z,94989.97
2019-06-15T07:33:13.817Z,94996.97
2019-06-15T07:38:15.137Z,95009.98
2019-06-15T07:43:16.493Z,95004.65
2019-06-15T07:48:17.840Z,95030.27
2019-06-15T07:53:19.205Z,95023.55
2019-06-15T07:58:24.584Z,95043.39
2019-06-15T08:03:22.721Z,95043.01
2019-06-15T08:08:24.209Z,95049.33
2019-06-15T08:13:25.488Z,95043.78
2019-06-15T08:18:26.927Z,95077.13
2019-06-15T08:23:28.357Z,95069.53
2019-06-15T08:28:39.824Z,95062.08
2019-06-15T08:33:31.070Z,95074.08
2019-06-15T08:38:33.164Z,95069.59
2019-06-15T08:43:34.541Z,95083.70
2019-06-15T08:48:35.936Z,95094.31
2019-06-15T08:53:37.390Z,95083.45
2019-06-15T08:58:38.879Z,95090.11
2019-06-15T09:03:40.297Z,95083.69
2019-06-15T09:08:41.652Z,95122.66
2019-06-15T09:13:43.173Z,95089.84
2019-06-15T09:18:44.584Z,95099.55
2019-06-15T09:23:46.061Z,95096.66
2019-06-15T09:28:48.232Z,95104.46
2019-06-15T09:33:49.532Z,95110.00
2019-06-15T09:38:50.873Z,95098.76
2019-06-15T09:43:52.953Z,95092.55
2019-06-15T09:48:54.313Z,95084.43
2019-06-15T09:53:56.421Z,95089.92
2019-06-15T09:58:57.756Z,95104.84
2019-06-15T10:03:59.130Z,95103.07
2019-06-15T10:09:00.465Z,95117.36
2019-06-15T10:14:01.819Z,95118.11
2019-06-15T10:19:03.218Z,95122.23
2019-06-15T10:24:04.641Z,95131.91
2019-06-15T10:29:06.080Z,95119.71
2019-06-15T10:34:07.430Z,95131.97
2019-06-15T10:39:09.504Z,95119.62
2019-06-15T10:44:11.630Z,95144.45
2019-06-15T10:49:12.953Z,95132.65
2019-06-15T10:54:15.104Z,95130.59
2019-06-15T10:59:16.486Z,95126.69
2019-06-15T11:04:17.841Z,95137.91
2019-06-15T11:09:19.194Z,95131.75
2019-06-15T11:14:20.546Z,95142.64
2019-06-15T11:19:21.939Z,95138.98
2019-06-15T11:24:23.326Z,95127.90
2019-06-15T11:29:25.387Z,95128.45
2019-06-15T11:34:26.757Z,95130.75
2019-06-15T11:39:28.228Z,95135.70
2019-06-15T11:44:29.578Z,95124.16
2019-06-15T11:49:30.937Z,95119.19
2019-06-15T11:54:32.298Z,95121.42
2019-06-15T11:59:33.781Z,95114.55
2019-06-15T12:04:35.142Z,95134.52
2019-06-15T12:09:36.490Z,95136.48
2019-06-15T12:14:37.860Z,95124.89
2019-06-15T12:19:39.242Z,95116.19
2019-06-15T12:24:40.653Z,95119.58
2019-06-15T12:29:42.036Z,95108.91
2019-06-15T12:34:43.433Z,95107.15
2019-06-15T12:39:44.797Z,95110.80
2019-06-15T12:44:46.224Z,95130.00
2019-06-15T12:49:47.552Z,95133.24
2019-06-15T12:54:49.620Z,95125.06
2019-06-15T12:59:51.034Z,95127.13
2019-06-15T13:04:52.383Z,95123.56
2019-06-15T13:09:54.517Z,95125.55
2019-06-15T13:14:55.971Z,95125.33
2019-06-15T13:19:57.405Z,95118.06
2019-06-15T13:24:58.922Z,95123.20
2019-06-15T13:30:00.279Z,95127.98
2019-06-15T13:35:01.595Z,95121.16
2019-06-15T13:40:03.818Z,95116.13
2019-06-15T13:45:05.710Z,95114.84
2019-06-15T13:50:07.056Z,95118.94
2019-06-15T13:55:08.372Z,95115.31
2019-06-15T14:00:09.708Z,95117.45
2019-06-15T14:05:11.031Z,95110.10
2019-06-15T14:10:12.410Z,95106.98
2019-06-15T14:15:13.771Z,95108.44
2019-06-15T14:20:15.150Z,95102.28
2019-06-15T14:25:16.553Z,95101.86
2019-06-15T14:30:18.083Z,95106.45
2019-06-15T14:35:19.378Z,95104.27
2019-06-15T14:40:20.682Z,95117.22
2019-06-15T14:45:22.012Z,95112.30
2019-06-15T14:50:23.362Z,95111.30
2019-06-15T14:55:26.267Z,95112.30
2019-06-15T15:00:26.193Z,95097.63
2019-06-15T15:05:27.690Z,95104.36
2019-06-15T15:10:28.922Z,95102.69
2019-06-15T15:15:30.270Z,95100.87
2019-06-15T15:20:31.689Z,95102.20
2019-06-15T15:25:33.157Z,95097.90
2019-06-15T15:30:39.267Z,95089.62
2019-06-15T15:35:40.630Z,95092.86
2019-06-15T15:40:41.996Z,95084.18
2019-06-15T15:45:45.909Z,95074.63
2019-06-15T15:50:46.855Z,95075.08
2019-06-15T15:55:46.821Z,95078.67
2019-06-15T16:00:47.434Z,95080.84
2019-06-15T16:05:49.505Z,95081.23
2019-06-15T16:10:50.865Z,95087.36
2019-06-15T16:15:52.433Z,95092.67
2019-06-15T16:20:54.340Z,95085.31
2019-06-15T16:25:56.749Z,95081.23
2019-06-15T16:31:06.761Z,95069.98
2019-06-15T16:35:59.982Z,95063.93
2019-06-15T16:41:01.330Z,95059.85
2019-06-15T16:46:02.725Z,95067.50
2019-06-15T16:51:06.545Z,95057.66
2019-06-15T16:56:06.096Z,95057.24
2019-06-15T17:01:07.070Z,95062.77
2019-06-15T17:06:08.402Z,95063.02
2019-06-15T17:11:09.726Z,95056.66
2019-06-15T17:16:11.895Z,95061.39
2019-06-15T17:21:14.000Z,95056.97
2019-06-15T17:26:16.834Z,95058.53
2019-06-15T17:31:16.752Z,95078.20
2019-06-15T17:36:18.078Z,95074.90
2019-06-15T17:41:20.171Z,95071.42
2019-06-15T17:46:21.513Z,95064.70
2019-06-15T17:51:22.881Z,95069.13
2019-06-15T17:56:26.651Z,95063.90
2019-06-15T18:01:26.606Z,95071.56
2019-06-15T18:06:27.101Z,95063.67
2019-06-15T18:11:28.410Z,95063.80
2019-06-15T18:16:30.582Z,95057.50
2019-06-15T18:21:31.098Z,95045.30
2019-06-15T18:26:32.581Z,95039.16
2019-06-15T18:31:36.311Z,95039.17
2019-06-15T18:36:36.578Z,95046.22
2019-06-15T18:41:37.112Z,95046.83
2019-06-15T18:46:38.938Z,95045.28
2019-06-15T18:51:40.321Z,95025.58
2019-06-15T18:56:41.633Z,95027.88
2019-06-15T19:01:43.045Z,95018.61
2019-06-15T19:06:46.621Z,95023.20
2019-06-15T19:11:45.836Z,95041.30
2019-06-15T19:16:47.301Z,95044.02
2019-06-15T19:21:57.153Z,95046.83
2019-06-15T19:26:58.299Z,95041.45
2019-06-15T19:31:58.825Z,95054.30
2019-06-15T19:37:00.169Z,95064.45
2019-06-15T19:42:01.613Z,95068.11
2019-06-15T19:47:03.616Z,95079.63
2019-06-15T19:52:06.679Z,95086.67
2019-06-15T19:57:07.858Z,95087.75
2019-06-15T20:02:13.803Z,95088.97
2019-06-15T20:07:17.037Z,95092.22
2019-06-15T20:12:21.845Z,95099.14
2019-06-15T20:17:19.670Z,95095.69
2019-06-15T20:22:21.786Z,95094.02
2019-06-15T20:27:23.093Z,95100.41
2019-06-15T20:32:26.258Z,95118.11
2019-06-15T20:37:26.278Z,95111.28
2019-06-15T20:42:27.193Z,95122.69
2019-06-15T20:47:28.528Z,95131.48
2019-06-15T20:52:29.930Z,95133.00
2019-06-15T20:57:31.281Z,95135.08
2019-06-15T21:02:32.621Z,95133.97
2019-06-15T21:07:36.160Z,95126.13
2019-06-15T21:12:37.631Z,95128.59
2019-06-15T21:17:37.200Z,95124.57
2019-06-15T21:22:38.185Z,95123.87
2019-06-15T21:27:39.638Z,95127.09
2019-06-15T21:32:40.979Z,95129.61
2019-06-15T21:37:43.082Z,95129.67
2019-06-15T21:42:46.727Z,95126.42
2019-06-15T21:47:46.403Z,95134.81
2019-06-15T21:52:47.196Z,95150.09
2019-06-15T21:57:48.539Z,95162.38
2019-06-15T22:02:49.914Z,95159.00
2019-06-15T22:07:51.265Z,95190.77
2019-06-15T22:12:52.652Z,95275.56
2019-06-15T22:17:54.051Z,95326.26
2019-06-15T22:22:55.329Z,95371.30
2019-06-15T22:27:57.429Z,95372.14
2019-06-15T22:32:58.778Z,95388.97
2019-06-15T22:38:00.140Z,95373.63
2019-06-15T22:43:01.572Z,95405.31
2019-06-15T22:48:02.930Z,95413.45
2019-06-15T22:53:07.141Z,95445.73
2019-06-15T22:58:06.507Z,95437.41
2019-06-15T23:03:07.149Z,95448.75
2019-06-15T23:08:08.512Z,95443.59
2019-06-15T23:13:09.849Z,95443.33
2019-06-15T23:18:11.306Z,95412.59
2019-06-15T23:23:12.610Z,95386.72
2019-06-15T23:28:16.358Z,95378.26
2019-06-15T23:33:17.228Z,95372.13
2019-06-15T23:38:16.833Z,95409.96
2019-06-15T23:43:18.186Z,95422.39
2019-06-15T23:48:19.522Z,95430.73
2019-06-15T23:53:20.920Z,95435.84
2019-06-15T23:58:23.097Z,95451.98
